Latest Weather Observations for Gabo Island

IDV60801

Issued at 6:02 pm EST Sunday 26 June 2016 (issued every 30 minutes, with the page automatically refreshed every 10 minutes)

About weather observations | Map of weather stations | Latest weather observations for VIC | Other Formats
Station Details ID: 084016 Name: GABO ISLAND LIGHTHOUSE Lat: -37.57 Lon: 149.92 Height: 15.2 m
Data from the previous 72 hours. | See also: Recent months at Gabo Island
Date/Time
EST
Temp
°C
App
Temp
°C
Dew
Point
°C
Rel
Hum
%
Delta-T
°C
Wind Press
QNH
hPa
Press
MSL
hPa
Rain since
9am
mm
Dir  Spd
km/h
Gust
km/h
Spd
kts
Gust
kts
26/06:00pm 12.3 7.8 7.1 70 2.5 SW 20 24 11 13 1016.2 1016.2 0.0
26/05:30pm 12.4 7.6 7.2 70 2.5 SW 22 24 12 13 1015.9 - 0.0
26/05:00pm 12.4 7.8 6.7 68 2.7 SW 20 24 11 13 1015.9 - 0.0
26/04:30pm 12.5 7.2 6.9 68 2.7 SSW 24 26 13 14 1015.8 - 0.0
26/04:00pm 12.6 7.0 7.0 68 2.7 SSW 26 28 14 15 1015.9 - 0.0
26/03:30pm 12.8 7.2 7.2 69 2.7 SSW 26 30 14 16 1016.1 - 0.0
26/03:00pm 12.9 7.4 7.6 70 2.6 SSW 26 28 14 15 1016.2 1016.2 0.0
26/02:30pm 13.2 8.4 7.5 68 2.8 SW 22 28 12 15 1016.6 - 0.0
26/02:00pm 13.4 8.2 7.2 66 3.0 SW 24 28 13 15 1016.6 - 0.0
26/01:30pm 14.0 9.0 6.5 60 3.6 WSW 22 28 12 15 1016.5 - 0.0
26/01:00pm 13.1 8.1 6.6 64 3.1 WSW 22 30 12 16 1016.6 - 0.0
26/12:30pm 13.6 8.7 6.8 63 3.3 W 22 30 12 16 1017.3 - 0.0
26/12:00pm 13.6 7.6 7.0 64 3.2 W 28 33 15 18 1017.8 1017.8 0.0
26/11:30am 12.8 5.9 6.3 64 3.1 W 32 37 17 20 1018.4 - 0.0
26/11:00am 12.6 5.4 6.0 64 3.1 W 33 41 18 22 1018.9 - 0.0
26/10:30am 12.7 5.5 5.9 63 3.2 W 33 43 18 23 1019.2 - 0.0
26/10:00am 11.8 3.8 5.5 65 2.9 W 37 44 20 24 1019.2 - 0.0
26/09:30am 11.6 4.5 5.5 66 2.8 W 32 43 17 23 1019.3 - 0.0
26/09:00am 10.8 5.2 5.6 70 2.4 W 24 32 13 17 1019.3 1019.3 3.2
26/08:30am 10.7 3.9 5.2 69 2.5 W 30 39 16 21 1019.0 - 3.2
26/08:00am 10.2 2.6 5.8 74 2.0 W 35 44 19 24 1019.1 - 3.2
26/07:30am 9.8 2.0 5.1 72 2.1 W 35 43 19 23 1019.1 - 3.2
26/07:00am 9.5 1.8 5.5 76 1.8 W 35 44 19 24 1018.9 - 3.2
26/06:30am 9.6 1.5 5.2 74 2.0 W 37 44 20 24 1018.7 - 3.2
26/06:00am 9.7 1.7 5.5 75 1.9 W 37 46 20 25 1018.4 1018.4 3.2
26/05:30am 9.5 1.0 5.0 73 2.0 W 39 46 21 25 1018.4 - 3.2
26/05:00am 10.0 1.6 5.4 73 2.1 W 39 46 21 25 1018.5 - 3.2
26/04:30am 9.9 2.6 5.5 74 2.0 W 33 46 18 25 1018.5 - 3.2
26/04:00am 9.7 1.7 5.8 77 1.8 W 37 46 20 25 1018.2 - 3.2
26/03:30am 9.5 1.1 5.8 78 1.7 W 39 50 21 27 1018.2 - 3.2
26/03:00am 9.5 1.1 5.8 78 1.7 W 39 46 21 25 1018.2 1018.2 3.2
26/02:30am 9.4 1.2 6.4 81 1.4 W 39 46 21 25 1018.3 - 3.2
26/02:00am 9.1 0.8 6.3 83 1.3 W 39 48 21 26 1018.0 - 3.2
26/01:30am 9.4 2.1 7.1 85 1.1 W 35 44 19 24 1018.2 - 3.2
26/01:00am 9.3 0.9 7.2 87 1.0 W 41 50 22 27 1018.1 - 3.2
26/12:30am 9.3 0.4 6.9 85 1.1 W 43 52 23 28 1018.2 - 3.2
26/12:00am 9.3 0.5 7.2 87 1.0 W 43 52 23 28 1018.5 1018.5 3.2
 
Date/Time
EST
Temp
°C
App
Temp
°C
Dew
Point
°C
Rel
Hum
%
Delta-T
°C
Wind Press
QNH
hPa
Press
MSL
hPa
Rain since
9am
mm
Dir  Spd
km/h
Gust
km/h
Spd
kts
Gust
kts
25/11:30pm 9.2 0.8 7.3 88 0.9 W 41 50 22 27 1018.7 - 3.0
25/11:00pm 9.3 0.8 6.9 85 1.1 W 41 50 22 27 1019.1 - 3.0
25/10:30pm 9.5 1.1 7.4 87 1.0 W 41 50 22 27 1019.0 - 3.0
25/10:00pm 9.3 1.2 7.2 87 1.0 W 39 48 21 26 1019.1 - 3.0
25/09:30pm 9.3 1.2 6.9 85 1.1 W 39 48 21 26 1019.2 - 3.0
25/09:00pm 9.4 1.0 7.3 87 1.0 W 41 50 22 27 1019.3 1019.3 3.0
25/08:30pm 9.2 0.7 7.1 87 1.0 W 41 48 22 26 1019.2 - 3.0
25/08:00pm 9.3 0.9 7.2 87 1.0 W 41 46 22 25 1019.2 - 3.0
25/07:30pm 9.4 1.4 7.3 87 1.0 W 39 46 21 25 1019.1 - 3.0
25/07:00pm 9.3 2.0 7.4 88 0.9 W 35 46 19 25 1019.2 - 3.0
25/06:30pm 9.4 1.7 7.1 85 1.1 W 37 48 20 26 1019.1 - 3.0
25/06:00pm 9.5 1.8 6.9 84 1.2 W 37 44 20 24 1018.8 1018.8 3.0
25/05:30pm 9.9 0.8 6.7 80 1.5 W 44 56 24 30 1018.3 - 3.0
25/05:00pm 9.7 0.9 7.2 84 1.2 WSW 43 56 23 30 1018.1 - 3.0
25/04:30pm 9.7 -0.1 6.9 83 1.3 WSW 48 59 26 32 1017.8 - 2.8
25/04:16pm 9.9 0.4 6.9 81 1.4 WSW 46 65 25 35 1017.6 - 2.8
25/04:00pm 9.7 0.9 7.2 84 1.2 WSW 43 57 23 31 1017.7 - 2.8
25/03:30pm 10.1 0.3 7.1 81 1.4 WSW 48 61 26 33 1017.5 - 2.6
25/03:00pm 10.6 0.4 7.0 78 1.7 WSW 50 65 27 35 1017.2 1017.2 2.6
25/02:46pm 9.7 -0.6 6.5 80 1.5 WSW 50 69 27 37 1017.3 - 2.6
25/02:30pm 9.9 1.0 6.9 81 1.4 WSW 43 59 23 32 1017.1 - 2.6
25/02:26pm 10.1 2.1 7.4 83 1.3 WSW 39 59 21 32 1017.2 - 2.6
25/02:00pm 9.5 0.0 6.9 84 1.2 WSW 46 61 25 33 1017.1 - 1.4
25/01:30pm 9.7 -1.7 6.5 80 1.5 WSW 56 74 30 40 1017.1 - 1.4
25/01:00pm 8.9 -1.0 6.5 85 1.1 WSW 48 72 26 39 1017.0 - 1.4
25/12:31pm 9.4 -0.9 6.6 83 1.3 WSW 50 69 27 37 1017.3 - 0.8
25/12:30pm 9.4 -1.3 6.6 83 1.3 WSW 52 69 28 37 1017.3 - 0.8
25/12:18pm 9.5 1.4 6.9 84 1.2 WSW 39 63 21 34 1017.2 - 0.6
25/12:06pm 9.1 2.1 7.0 87 1.0 SW 33 65 18 35 1017.4 - 0.2
25/12:00pm 9.0 -2.5 6.4 84 1.2 WSW 56 76 30 41 1017.3 1017.2 0.0
25/11:47am 9.3 -1.9 5.8 79 1.6 WSW 54 72 29 39 1017.3 - 0.0
25/11:30am 8.9 -1.1 6.3 84 1.2 W 48 63 26 34 1017.3 - 0.0
25/11:10am 9.4 -1.0 6.1 80 1.5 W 50 69 27 37 1017.4 - 0.0
25/11:00am 9.5 -1.3 6.0 79 1.6 WSW 52 65 28 35 1017.4 - 0.0
25/10:30am 9.3 -1.5 6.0 80 1.5 W 52 72 28 39 1017.2 - 0.0
25/10:28am 9.1 -1.8 5.6 79 1.6 W 52 72 28 39 1017.2 - 0.0
25/10:00am 9.3 -0.4 5.8 79 1.6 W 46 61 25 33 1017.3 - 0.0
25/09:30am 8.6 -1.9 5.7 82 1.3 W 50 61 27 33 1016.8 - 0.0
25/09:00am 8.3 -1.4 5.6 83 1.2 W 46 65 25 35 1016.3 1016.3 5.2
25/08:30am 8.0 -1.7 5.8 86 1.0 W 46 59 25 32 1016.5 - 4.6
25/08:00am 7.7 -1.1 5.7 87 0.9 WSW 41 56 22 30 1016.4 - 4.0
25/07:30am 7.7 -1.1 5.7 87 0.9 WSW 41 52 22 28 1016.2 - 2.8
25/07:00am 7.5 -1.9 5.2 85 1.0 W 44 59 24 32 1015.8 - 1.2
25/06:31am 7.6 -3.8 5.1 84 1.1 W 54 72 29 39 1014.9 - 1.0
25/06:30am 7.5 -4.2 5.2 85 1.0 W 56 72 30 39 1014.9 - 1.0
25/06:00am 7.7 -3.4 4.7 81 1.3 W 52 67 28 36 1014.5 1014.4 0.8
25/05:45am 8.0 -2.8 4.3 77 1.6 W 50 69 27 37 1014.3 - 0.6
25/05:30am 8.1 -3.1 4.2 76 1.7 W 52 65 28 35 1013.9 - 0.6
25/05:00am 7.7 -2.4 4.0 77 1.6 W 46 59 25 32 1013.6 - 0.6
25/04:40am 8.1 -2.0 3.7 74 1.9 W 46 65 25 35 1013.3 - 0.6
25/04:30am 8.1 -1.6 3.9 75 1.8 W 44 61 24 33 1013.2 - 0.6
25/04:00am 8.2 -2.6 4.1 75 1.8 W 50 65 27 35 1012.8 - 0.6
25/03:30am 8.1 -4.0 3.4 72 2.0 W 56 67 30 36 1012.1 - 0.6
25/03:07am 8.0 -4.7 3.3 72 2.0 W 59 80 32 43 1011.8 - 0.6
25/03:00am 7.9 -4.8 2.9 70 2.1 WSW 59 76 32 41 1011.7 1011.8 0.6
25/02:36am 7.7 -4.4 3.0 72 2.0 W 56 76 30 41 1011.7 - 0.6
25/02:30am 7.8 -3.9 3.1 72 2.0 W 54 69 29 37 1011.7 - 0.6
25/02:11am 7.7 -4.0 3.2 73 1.9 W 54 72 29 39 1011.4 - 0.6
25/02:00am 7.4 -4.8 2.6 71 2.0 W 56 69 30 37 1011.2 - 0.6
25/01:30am 7.7 -4.5 3.5 75 1.8 W 57 72 31 39 1010.8 - 0.6
25/01:00am 7.5 -5.3 2.7 71 2.0 W 59 78 32 42 1010.3 - 0.6
25/12:30am 7.7 -4.5 2.7 70 2.1 W 56 74 30 40 1010.0 - 0.6
25/12:01am 7.5 -5.2 3.0 73 1.9 W 59 78 32 42 1009.9 - 0.6
25/12:00am 7.6 -5.6 2.6 70 2.1 W 61 78 33 42 1009.9 1009.8 0.6
 
Date/Time
EST
Temp
°C
App
Temp
°C
Dew
Point
°C
Rel
Hum
%
Delta-T
°C
Wind Press
QNH
hPa
Press
MSL
hPa
Rain since
9am
mm
Dir  Spd
km/h
Gust
km/h
Spd
kts
Gust
kts
24/11:30pm 7.7 -5.3 3.5 75 1.8 W 61 80 33 43 1009.5 - 0.6
24/11:06pm 7.6 -5.1 2.8 71 2.0 W 59 78 32 42 1009.3 - 0.6
24/11:00pm 7.7 -5.8 3.0 72 2.0 W 63 74 34 40 1009.3 - 0.6
24/10:35pm 7.9 -5.1 3.5 74 1.9 W 61 80 33 43 1009.1 - 0.6
24/10:30pm 7.9 -5.6 2.9 70 2.1 W 63 80 34 43 1008.9 - 0.6
24/10:00pm 7.9 -5.2 3.2 72 2.0 W 61 76 33 41 1008.6 - 0.6
24/09:30pm 7.5 -4.7 2.7 71 2.0 W 56 69 30 37 1008.2 - 0.6
24/09:00pm 7.8 -5.1 3.9 76 1.7 W 61 85 33 46 1007.8 1007.8 0.6
24/08:53pm 7.5 -5.9 3.3 75 1.8 W 63 85 34 46 1007.5 - 0.6
24/08:30pm 7.7 -4.8 4.0 77 1.6 W 59 72 32 39 1007.0 - 0.6
24/08:00pm 7.3 -5.1 4.6 83 1.2 W 59 78 32 42 1006.5 - 0.6
24/07:58pm 7.2 -5.3 4.2 81 1.3 W 59 78 32 42 1006.5 - 0.6
24/07:30pm 7.4 -4.6 4.7 83 1.2 W 57 72 31 39 1006.0 - 0.6
24/07:07pm 7.7 -4.2 4.5 80 1.4 W 56 74 30 40 1006.0 - 0.6
24/07:00pm 7.7 -3.6 5.2 84 1.1 W 54 67 29 36 1005.9 - 0.6
24/06:30pm 8.5 -3.1 5.6 82 1.3 WSW 56 72 30 39 1005.2 - 0.4
24/06:00pm 9.0 -2.3 5.5 79 1.6 WSW 54 72 29 39 1004.6 1004.5 0.0
24/05:58pm 9.1 -2.2 5.6 79 1.6 WSW 54 72 29 39 1004.5 - 0.0
24/05:30pm 9.1 -2.4 4.6 73 2.0 W 54 67 29 36 1003.8 - 0.0
24/05:16pm 9.1 -2.3 5.1 76 1.8 WSW 54 72 29 39 1003.6 - 0.0
24/05:00pm 9.8 -1.3 4.4 69 2.4 WSW 52 69 28 37 1003.3 - 0.0
24/04:30pm 10.3 -1.3 4.0 65 2.8 WSW 54 74 29 40 1002.7 - 0.0
24/04:12pm 10.1 0.7 4.5 68 2.5 WSW 43 61 23 33 1002.7 - 0.0
24/04:00pm 10.1 0.5 4.3 67 2.6 WSW 44 57 24 31 1002.5 - 0.0
24/03:30pm 10.5 1.2 4.8 68 2.6 WSW 43 56 23 30 1002.2 - 0.0
24/03:00pm 9.7 0.7 4.3 69 2.4 WSW 41 52 22 28 1002.0 1002.0 0.0
24/02:45pm 9.9 0.6 4.8 70 2.3 WSW 43 61 23 33 1001.8 - 0.0
24/02:30pm 10.6 1.1 4.9 68 2.6 WSW 44 59 24 32 1001.5 - 0.0
24/02:00pm 11.3 2.7 4.5 63 3.1 WSW 39 46 21 25 1001.0 - 0.0
24/01:30pm 10.6 1.4 3.3 60 3.2 WSW 41 50 22 27 1000.5 - 0.0
24/01:28pm 10.6 1.5 3.9 63 3.0 WSW 41 59 22 32 1000.5 - 0.0
24/01:00pm 11.9 3.9 3.9 58 3.6 WSW 35 43 19 23 1000.5 - 0.0
24/12:30pm 12.2 4.0 2.9 53 4.1 WSW 35 43 19 23 1000.5 - 0.0
24/12:00pm 13.0 7.4 3.4 52 4.3 WSW 22 28 12 15 1000.9 1000.9 0.0
24/11:30am 12.3 6.5 4.2 57 3.7 WSW 24 35 13 19 1001.1 - 0.0
24/11:00am 11.7 6.3 4.7 62 3.2 W 22 30 12 16 1001.1 - 0.0
24/10:30am 11.2 5.8 4.3 62 3.1 W 22 26 12 14 1001.0 - 0.0
24/10:00am 10.1 4.9 3.5 63 2.9 W 20 28 11 15 1000.9 - 0.0
24/09:30am 9.9 3.9 3.3 63 2.9 WSW 24 30 13 16 1000.8 - 0.0
24/09:00am 9.9 3.2 3.8 66 2.7 W 28 35 15 19 1000.5 1000.5 0.0
24/08:30am 9.4 1.9 3.7 67 2.5 W 32 39 17 21 1000.0 - 0.0
24/08:00am 8.6 1.2 4.0 73 2.0 W 32 39 17 21 999.6 - 0.0
24/07:30am 8.5 1.8 3.4 70 2.2 W 28 32 15 17 999.6 - 0.0
24/07:00am 7.2 2.6 3.7 78 1.5 WNW 17 24 9 13 999.7 - 0.0
24/06:30am 6.5 3.8 3.9 83 1.1 NNW 7 11 4 6 999.6 - 0.0
24/06:00am 6.8 3.0 3.8 81 1.3 NNW 13 17 7 9 999.2 999.2 0.0
24/05:30am 7.3 2.8 4.1 80 1.4 WNW 17 24 9 13 999.0 - 0.0
24/05:00am 7.5 1.2 3.8 77 1.6 WNW 26 33 14 18 998.9 - 0.0
24/04:30am 7.5 3.3 3.8 77 1.6 NW 15 20 8 11 998.2 - 0.0
24/04:00am 8.3 1.7 4.0 74 1.9 W 28 35 15 19 999.1 - 0.0
24/03:30am 8.9 0.5 5.4 79 1.6 W 39 52 21 28 999.6 - 0.0
24/03:00am 9.4 -0.4 5.2 75 1.9 W 46 57 25 31 999.8 999.7 0.0
24/02:30am 10.0 0.2 7.1 82 1.4 WSW 48 59 26 32 999.3 - 0.0
24/02:00am 11.1 1.7 8.7 85 1.2 WSW 48 59 26 32 998.6 - 0.0
24/01:30am 11.5 3.3 6.5 71 2.4 W 39 48 21 26 998.7 - 0.0
24/01:17am 11.7 2.9 5.7 66 2.8 W 41 52 22 28 998.3 - 0.0
24/01:00am 11.4 7.8 6.6 72 2.3 W 15 20 8 11 997.1 - 0.0
24/12:30am 11.9 7.2 6.0 67 2.8 W 20 28 11 15 997.4 - 0.0
24/12:00am 11.9 7.3 5.7 66 2.9 WSW 19 24 10 13 997.8 997.8 0.0
 
Date/Time
EST
Temp
°C
App
Temp
°C
Dew
Point
°C
Rel
Hum
%
Delta-T
°C
Wind Press
QNH
hPa
Press
MSL
hPa
Rain since
9am
mm
Dir  Spd
km/h
Gust
km/h
Spd
kts
Gust
kts
23/11:30pm 13.2 9.4 3.7 52 4.3 N 13 20 7 11 997.7 - 0.0
23/11:00pm 11.5 8.2 4.7 63 3.1 NNE 11 13 6 7 998.2 - 0.0
23/10:30pm 12.0 7.0 4.6 60 3.4 N 20 24 11 13 998.3 - 0.0
23/10:00pm 12.9 6.5 3.3 52 4.3 N 26 35 14 19 998.2 - 0.0
23/09:30pm 12.2 6.4 2.1 50 4.4 N 22 28 12 15 998.7 - 0.0
23/09:00pm 11.3 6.2 2.9 56 3.7 N 19 22 10 12 999.3 999.4 0.0
23/08:30pm 11.8 6.7 3.0 55 3.9 N 19 22 10 12 999.6 - 0.0
23/08:00pm 11.8 6.1 2.7 53 4.0 N 22 28 12 15 999.6 - 0.0
23/07:30pm 11.1 6.1 3.4 59 3.4 N 19 22 10 12 999.8 - 0.0
23/07:00pm 12.2 7.8 4.6 59 3.5 N 17 20 9 11 1000.0 - 0.0
23/06:30pm 12.4 8.2 1.7 48 4.6 N 13 20 7 11 1000.3 - 0.0

Other Formats:

Comma delimited format used in spreadsheet applications
http://www.bom.gov.au/fwo/IDV60801/IDV60801.94933.axf

JavaScript Object Notation format (JSON) in row-major order
http://www.bom.gov.au/fwo/IDV60801/IDV60801.94933.json